createdAt,value
2019-04-07T00:04:48.909Z,10.48
2019-04-07T00:09:51.332Z,10.56
2019-04-07T00:14:54.086Z,10.66
2019-04-07T00:19:56.983Z,10.62
2019-04-07T00:24:59.586Z,10.31
2019-04-07T00:30:02.061Z,10.36
2019-04-07T00:35:05.685Z,10.40
2019-04-07T00:40:08.649Z,10.29
2019-04-07T00:45:11.014Z,10.17
2019-04-07T00:50:13.384Z,10.26
2019-04-07T00:55:15.738Z,10.06
2019-04-07T01:00:18.293Z,9.99
2019-04-07T01:05:20.704Z,10.18
2019-04-07T01:10:22.963Z,10.19
2019-04-07T01:15:25.293Z,10.14
2019-04-07T01:20:27.513Z,9.96
2019-04-07T01:25:30.216Z,10.06
2019-04-07T01:30:32.689Z,10.10
2019-04-07T01:35:45.052Z,10.13
2019-04-07T01:40:39.959Z,10.00
2019-04-07T01:45:47.267Z,9.92
2019-04-07T01:50:51.806Z,9.80
2019-04-07T01:56:05.429Z,9.94
2019-04-07T02:01:15.823Z,9.99
2019-04-07T02:06:28.934Z,9.95
2019-04-07T02:11:35.696Z,9.89
2019-04-07T02:16:39.977Z,9.79
2019-04-07T02:21:53.017Z,9.78
2019-04-07T02:26:59.784Z,9.76
2019-04-07T02:32:08.045Z,9.61
2019-04-07T02:37:15.360Z,9.59
2019-04-07T02:42:32.205Z,9.55
2019-04-07T02:47:48.390Z,9.27
2019-04-07T02:52:54.623Z,9.13
2019-04-07T02:57:59.034Z,9.18
2019-04-07T03:03:03.347Z,9.41
2019-04-07T03:08:24.139Z,9.51
2019-04-07T03:13:46.467Z,9.61
2019-04-07T03:18:50.810Z,9.73
2019-04-07T03:24:04.228Z,9.58
2019-04-07T03:29:08.572Z,9.47
2019-04-07T03:34:15.940Z,9.63
2019-04-07T03:39:26.554Z,9.45
2019-04-07T03:44:36.802Z,9.07
2019-04-07T03:49:43.333Z,9.05
2019-04-07T03:54:47.610Z,9.03
2019-04-07T04:00:08.583Z,9.25
2019-04-07T04:05:18.902Z,9.35
2019-04-07T04:10:23.751Z,9.23
2019-04-07T04:15:27.749Z,9.29
2019-04-07T04:20:30.295Z,9.37
2019-04-07T04:25:32.603Z,9.25
2019-04-07T04:30:34.755Z,9.12
2019-04-07T04:35:37.539Z,8.99
2019-04-07T04:40:40.851Z,9.02
2019-04-07T04:45:44.901Z,9.18
2019-04-07T04:50:47.702Z,9.20
2019-04-07T04:55:50.069Z,9.06
2019-04-07T05:00:52.503Z,9.14
2019-04-07T05:05:55.492Z,9.42
2019-04-07T05:10:58.840Z,9.48
2019-04-07T05:16:01.213Z,9.42
2019-04-07T05:21:04.247Z,9.53
2019-04-07T05:26:06.997Z,9.54
2019-04-07T05:31:09.818Z,9.62
2019-04-07T05:36:12.237Z,9.65
2019-04-07T05:41:14.954Z,9.76
2019-04-07T05:46:17.650Z,9.79
2019-04-07T05:51:20.885Z,9.98
2019-04-07T05:56:26.835Z,9.80
2019-04-07T06:01:28.428Z,9.78
2019-04-07T06:06:32.274Z,9.85
2019-04-07T06:11:36.165Z,10.07
2019-04-07T06:16:38.853Z,10.24
2019-04-07T06:21:41.643Z,10.33
2019-04-07T06:26:47.137Z,10.53
2019-04-07T06:31:48.220Z,10.66
2019-04-07T06:36:53.619Z,10.82
2019-04-07T06:41:55.064Z,11.04
2019-04-07T06:47:03.856Z,11.10
2019-04-07T06:52:13.801Z,11.24
2019-04-07T06:57:29.901Z,11.30
2019-04-07T07:02:49.134Z,11.48
2019-04-07T07:07:59.707Z,11.67
2019-04-07T07:19:38.026Z,12.08
2019-04-07T07:24:40.319Z,12.12
2019-04-07T07:29:45.373Z,12.46
2019-04-07T07:34:47.655Z,13.05
2019-04-07T07:39:50.820Z,13.45
2019-04-07T07:44:53.558Z,14.08
2019-04-07T07:49:56.103Z,14.62
2019-04-07T07:55:00.759Z,15.05
2019-04-07T08:00:06.959Z,14.69
2019-04-07T08:05:09.420Z,14.89
2019-04-07T08:10:11.714Z,14.59
2019-04-07T08:15:14.184Z,14.82
2019-04-07T08:20:16.485Z,15.09
2019-04-07T08:25:22.296Z,15.45
2019-04-07T08:30:23.798Z,15.84
2019-04-07T08:35:28.767Z,15.59
2019-04-07T08:40:32.647Z,15.05
2019-04-07T08:45:35.838Z,15.10
2019-04-07T08:50:38.419Z,15.35
2019-04-07T08:55:41.649Z,15.72
2019-04-07T09:00:48.212Z,15.79
2019-04-07T09:05:50.327Z,15.72
2019-04-07T09:10:54.917Z,15.60
2019-04-07T09:16:17.389Z,15.78
2019-04-07T09:21:39.839Z,15.71
2019-04-07T09:26:49.968Z,15.63
2019-04-07T09:31:54.209Z,15.99
2019-04-07T09:37:17.691Z,16.01
2019-04-07T09:42:26.810Z,16.30
2019-04-07T09:47:33.854Z,16.46
2019-04-07T09:52:39.568Z,16.21
2019-04-07T09:57:47.576Z,16.21
2019-04-07T10:02:58.824Z,16.10
2019-04-07T10:08:20.310Z,16.59
2019-04-07T10:13:27.540Z,16.55
2019-04-07T10:18:46.580Z,16.29
2019-04-07T10:24:06.268Z,16.05
2019-04-07T10:29:11.022Z,15.69
2019-04-07T10:34:16.157Z,15.75
2019-04-07T10:39:27.487Z,15.77
2019-04-07T10:44:32.405Z,15.63
2019-04-07T10:50:01.400Z,15.77
2019-04-07T11:00:55.321Z,15.59
2019-04-07T11:06:05.209Z,15.50
2019-04-07T11:11:12.307Z,15.44
2019-04-07T11:16:31.533Z,15.40
2019-04-07T11:21:36.708Z,15.35
2019-04-07T11:26:59.418Z,15.35
2019-04-07T11:32:10.303Z,15.39
2019-04-07T11:37:20.525Z,15.46
2019-04-07T11:42:33.836Z,15.43
2019-04-07T11:47:43.938Z,15.56
2019-04-07T11:52:51.590Z,15.43
2019-04-07T11:58:09.787Z,15.39
2019-04-07T12:03:20.013Z,15.01
2019-04-07T12:08:31.154Z,14.94
2019-04-07T12:13:31.431Z,15.07
2019-04-07T12:18:38.677Z,14.94
2019-04-07T12:23:55.410Z,14.87
2019-04-07T12:29:16.770Z,14.93
2019-04-07T12:34:33.341Z,14.97
2019-04-07T12:39:37.403Z,14.85
2019-04-07T12:44:47.057Z,14.82
2019-04-07T12:50:10.513Z,14.80
2019-04-07T12:55:28.334Z,14.86
2019-04-07T13:00:52.308Z,14.93
2019-04-07T13:05:59.099Z,15.02
2019-04-07T13:11:26.486Z,15.03
2019-04-07T13:16:30.542Z,15.12
2019-04-07T13:21:40.944Z,15.20
2019-04-07T13:26:54.132Z,15.36
2019-04-07T13:32:01.461Z,15.47
2019-04-07T13:37:18.760Z,15.53
2019-04-07T13:42:23.101Z,15.31
2019-04-07T13:47:29.019Z,15.14
2019-04-07T13:52:45.413Z,15.01
2019-04-07T13:57:55.608Z,14.70
2019-04-07T14:03:04.837Z,14.45
2019-04-07T14:08:22.324Z,14.37
2019-04-07T14:13:42.705Z,14.23
2019-04-07T14:18:53.052Z,14.06
2019-04-07T14:24:13.982Z,14.02
2019-04-07T14:29:18.512Z,14.08
2019-04-07T14:34:29.316Z,14.03
2019-04-07T14:39:36.923Z,14.06
2019-04-07T14:44:47.073Z,14.14
2019-04-07T14:49:52.148Z,14.11
2019-04-07T14:55:01.331Z,14.17
2019-04-07T15:00:14.105Z,14.12
2019-04-07T15:05:21.774Z,14.10
2019-04-07T15:10:27.593Z,14.11
2019-04-07T15:15:30.337Z,14.21
2019-04-07T15:20:32.819Z,14.08
2019-04-07T15:25:35.481Z,14.01
2019-04-07T15:30:38.410Z,13.86
2019-04-07T15:35:47.861Z,13.91
2019-04-07T15:40:47.161Z,13.80
2019-04-07T15:45:50.177Z,13.76
2019-04-07T15:50:52.887Z,13.68
2019-04-07T15:56:02.265Z,13.58
2019-04-07T16:01:00.226Z,13.38
2019-04-07T16:06:02.299Z,13.30
2019-04-07T16:11:05.017Z,13.16
2019-04-07T16:16:07.875Z,13.21
2019-04-07T16:21:11.185Z,13.17
2019-04-07T16:26:19.692Z,13.08
2019-04-07T16:31:25.447Z,13.03
2019-04-07T16:36:28.174Z,13.06
2019-04-07T16:41:30.539Z,13.17
2019-04-07T16:46:33.768Z,12.98
2019-04-07T16:51:36.374Z,13.04
2019-04-07T16:56:39.176Z,12.99
2019-04-07T17:01:42.280Z,13.05
2019-04-07T17:06:44.975Z,13.07
2019-04-07T17:11:47.432Z,13.07
2019-04-07T17:16:50.399Z,13.14
2019-04-07T17:21:53.402Z,13.10
2019-04-07T17:26:56.232Z,13.21
2019-04-07T17:32:01.769Z,13.23
2019-04-07T17:37:04.114Z,13.13
2019-04-07T17:42:10.811Z,13.12
2019-04-07T17:47:14.471Z,12.93
2019-04-07T17:52:35.827Z,13.04
2019-04-07T17:57:42.897Z,12.85
2019-04-07T18:02:53.926Z,12.68
2019-04-07T18:07:59.179Z,12.58
2019-04-07T18:13:21.728Z,12.38
2019-04-07T18:18:26.414Z,12.44
2019-04-07T18:23:32.632Z,12.52
2019-04-07T18:28:43.324Z,12.60
2019-04-07T18:33:50.739Z,12.54
2019-04-07T18:39:11.224Z,12.56
2019-04-07T18:44:22.840Z,12.54
2019-04-07T18:49:29.481Z,12.65
2019-04-07T18:54:42.476Z,12.46
2019-04-07T18:59:50.345Z,12.34
2019-04-07T19:05:09.172Z,12.36
2019-04-07T19:10:19.880Z,12.49
2019-04-07T19:15:37.110Z,12.45
2019-04-07T19:20:51.463Z,12.21
2019-04-07T19:26:04.430Z,12.08
2019-04-07T19:31:26.326Z,12.13
2019-04-07T19:36:30.529Z,12.09
2019-04-07T19:41:40.649Z,12.02
2019-04-07T19:46:44.611Z,12.08
2019-04-07T19:52:04.325Z,12.13
2019-04-07T19:57:09.474Z,12.17
2019-04-07T20:02:16.263Z,11.65
2019-04-07T20:07:20.376Z,11.66
2019-04-07T20:12:25.025Z,11.69
2019-04-07T20:17:32.704Z,11.84
2019-04-07T20:22:39.507Z,11.88
2019-04-07T20:27:47.002Z,11.97
2019-04-07T20:32:51.328Z,12.11
2019-04-07T20:38:07.711Z,12.03
2019-04-07T20:43:24.139Z,11.99
2019-04-07T20:48:35.860Z,11.99
2019-04-07T20:53:40.783Z,12.02
2019-04-07T20:59:05.777Z,11.86
2019-04-07T21:04:08.519Z,11.85
2019-04-07T21:09:32.611Z,11.83
2019-04-07T21:14:41.539Z,11.90
2019-04-07T21:20:02.360Z,11.81
2019-04-07T21:25:08.180Z,11.79
2019-04-07T21:30:17.315Z,11.78
2019-04-07T21:35:38.376Z,11.69
2019-04-07T21:40:48.435Z,11.51
2019-04-07T21:46:11.121Z,11.38
2019-04-07T21:51:24.786Z,11.46
2019-04-07T21:56:47.629Z,11.54
2019-04-07T22:02:11.408Z,11.44
2019-04-07T22:07:16.018Z,11.37
2019-04-07T22:12:18.842Z,11.46
2019-04-07T22:17:21.440Z,11.35
2019-04-07T22:22:25.662Z,11.36
2019-04-07T22:27:28.666Z,11.33
2019-04-07T22:32:31.139Z,11.25
2019-04-07T22:37:34.459Z,11.35
2019-04-07T22:42:37.180Z,11.30
2019-04-07T22:47:39.990Z,11.12
2019-04-07T22:52:42.126Z,11.06
2019-04-07T22:57:44.517Z,11.09
2019-04-07T23:02:46.833Z,11.05
2019-04-07T23:07:50.216Z,11.08
2019-04-07T23:12:52.447Z,11.05
2019-04-07T23:17:55.581Z,11.09
2019-04-07T23:22:58.360Z,11.03
2019-04-07T23:28:00.707Z,10.89
2019-04-07T23:33:03.026Z,11.00
2019-04-07T23:38:05.783Z,11.00
2019-04-07T23:43:07.788Z,10.91
2019-04-07T23:48:10.444Z,11.05
2019-04-07T23:53:49.450Z,11.08
2019-04-07T23:58:52.079Z,11.04
